TAM3050 SBSP-SBCF
Flight info
| Callsign | TAM3050 |
|---|---|
| Flight time | 0h 50m |
| Altitude | 33000 |
| Route | NUXEL UZ23 KIBAP |
| Aircraft | A320/M-SDE3FGHIRWY/LB1 |
Departure
| Time | 2026-05-04 13:45 |
|---|---|
| Airport | Congonhas–Deputado Freitas Nobre Airport (SBSP) |
Arrival
| Time | 2026-05-04 14:35 |
|---|---|
| Airport | Tancredo Neves International Airport (SBCF) |
| Time | Latitude | Longitude | Altitude | Speed | Heading |
|---|---|---|---|---|---|
| 2026-05-04 13:19 | -23.62512 | -46.65968 | 2601 ft | 0 kts | 237° |
| 2026-05-04 13:35 | -23.62512 | -46.65967 | 2600 ft | 1 kts | 237° |
| 2026-05-04 13:35 | -23.62499 | -46.65946 | 2600 ft | 4 kts | 230° |
| 2026-05-04 13:36 | -23.62483 | -46.65932 | 2601 ft | 4 kts | 163° |
| 2026-05-04 13:36 | -23.62465 | -46.65942 | 2601 ft | 1 kts | 147° |
| 2026-05-04 13:36 | -23.62464 | -46.65943 | 2601 ft | 0 kts | 147° |
| 2026-05-04 13:38 | -23.62465 | -46.65942 | 2601 ft | 1 kts | 147° |
| 2026-05-04 13:38 | -23.62473 | -46.65936 | 2601 ft | 2 kts | 139° |
| 2026-05-04 13:39 | -23.62486 | -46.65915 | 2601 ft | 4 kts | 126° |
| 2026-05-04 13:39 | -23.62493 | -46.65904 | 2601 ft | 2 kts | 128° |
| 2026-05-04 13:39 | -23.62508 | -46.65885 | 2601 ft | 5 kts | 129° |
| 2026-05-04 13:39 | -23.62534 | -46.65849 | 2602 ft | 7 kts | 134° |
| 2026-05-04 13:40 | -23.62587 | -46.65810 | 2602 ft | 10 kts | 147° |
| 2026-05-04 13:40 | -23.62644 | -46.65770 | 2602 ft | 8 kts | 147° |
| 2026-05-04 13:40 | -23.62694 | -46.65736 | 2602 ft | 10 kts | 148° |
| 2026-05-04 13:40 | -23.62759 | -46.65692 | 2602 ft | 13 kts | 148° |
| 2026-05-04 13:41 | -23.62845 | -46.65633 | 2603 ft | 17 kts | 148° |
| 2026-05-04 13:41 | -23.62937 | -46.65570 | 2603 ft | 8 kts | 142° |
| 2026-05-04 13:41 | -23.62992 | -46.65532 | 2603 ft | 10 kts | 150° |
| 2026-05-04 13:42 | -23.63124 | -46.65474 | 2602 ft | 9 kts | 148° |
| 2026-05-04 13:42 | -23.63184 | -46.65433 | 2602 ft | 11 kts | 148° |
| 2026-05-04 13:42 | -23.63252 | -46.65386 | 2602 ft | 12 kts | 146° |
| 2026-05-04 13:42 | -23.63323 | -46.65335 | 2602 ft | 13 kts | 146° |
| 2026-05-04 13:43 | -23.63401 | -46.65283 | 2602 ft | 14 kts | 149° |
| 2026-05-04 13:43 | -23.63460 | -46.65241 | 2601 ft | 7 kts | 147° |
| 2026-05-04 13:43 | -23.63503 | -46.65208 | 2600 ft | 8 kts | 134° |
| 2026-05-04 13:43 | -23.63487 | -46.65147 | 2599 ft | 11 kts | 35° |
| 2026-05-04 13:44 | -23.63433 | -46.65110 | 2600 ft | 6 kts | 5° |
| 2026-05-04 13:44 | -23.63418 | -46.65120 | 2601 ft | 9 kts | 324° |
| 2026-05-04 13:44 | -23.63128 | -46.65327 | 2610 ft | 91 kts | 328° |
| 2026-05-04 13:44 | -23.62382 | -46.65840 | 2673 ft | 152 kts | 330° |
| 2026-05-04 13:45 | -23.61503 | -46.66454 | 3452 ft | 149 kts | 330° |
| 2026-05-04 13:45 | -23.60555 | -46.66848 | 4081 ft | 148 kts | 357° |
| 2026-05-04 13:45 | -23.59512 | -46.66532 | 4331 ft | 171 kts | 34° |
| 2026-05-04 13:45 | -23.58829 | -46.65379 | 4511 ft | 201 kts | 79° |
| 2026-05-04 13:46 | -23.59029 | -46.63758 | 4866 ft | 226 kts | 104° |
| 2026-05-04 13:46 | -23.59531 | -46.62087 | 5464 ft | 237 kts | 108° |
| 2026-05-04 13:46 | -23.60087 | -46.60371 | 6175 ft | 247 kts | 107° |
| 2026-05-04 13:46 | -23.60619 | -46.58495 | 6583 ft | 271 kts | 104° |
| 2026-05-04 13:47 | -23.61159 | -46.56466 | 7067 ft | 290 kts | 108° |
| 2026-05-04 13:47 | -23.62274 | -46.54592 | 7816 ft | 297 kts | 136° |
| 2026-05-04 13:47 | -23.63770 | -46.53030 | 8704 ft | 299 kts | 137° |
| 2026-05-04 13:47 | -23.65272 | -46.51458 | 9599 ft | 301 kts | 137° |
| 2026-05-04 13:48 | -23.66782 | -46.49869 | 10443 ft | 304 kts | 138° |
| 2026-05-04 13:48 | -23.68352 | -46.48185 | 10733 ft | 328 kts | 134° |
| 2026-05-04 13:48 | -23.69686 | -46.46110 | 11244 ft | 340 kts | 119° |
| 2026-05-04 13:48 | -23.70541 | -46.43680 | 11933 ft | 347 kts | 105° |
| 2026-05-04 13:49 | -23.70803 | -46.41044 | 12626 ft | 354 kts | 88° |
| 2026-05-04 13:49 | -23.70284 | -46.38417 | 13327 ft | 359 kts | 67° |
| 2026-05-04 13:49 | -23.68955 | -46.36103 | 14023 ft | 364 kts | 46° |
| 2026-05-04 13:49 | -23.66954 | -46.34436 | 14588 ft | 365 kts | 24° |
| 2026-05-04 13:50 | -23.64590 | -46.33536 | 15182 ft | 366 kts | 13° |
| 2026-05-04 13:50 | -23.62131 | -46.32777 | 15793 ft | 369 kts | 12° |
| 2026-05-04 13:50 | -23.59653 | -46.32005 | 16425 ft | 373 kts | 13° |
| 2026-05-04 13:50 | -23.57166 | -46.31133 | 17007 ft | 378 kts | 15° |
| 2026-05-04 13:51 | -23.54669 | -46.30179 | 17594 ft | 382 kts | 16° |
| 2026-05-04 13:51 | -23.52161 | -46.29183 | 18174 ft | 386 kts | 17° |
| 2026-05-04 13:51 | -23.49625 | -46.28170 | 18720 ft | 390 kts | 16° |
| 2026-05-04 13:51 | -23.47065 | -46.27157 | 19213 ft | 394 kts | 16° |
| 2026-05-04 13:52 | -23.41823 | -46.25128 | 20231 ft | 400 kts | 15° |
| 2026-05-04 13:52 | -23.39189 | -46.24123 | 20741 ft | 403 kts | 15° |
| 2026-05-04 13:52 | -23.36533 | -46.23110 | 21232 ft | 406 kts | 15° |
| 2026-05-04 13:53 | -23.33850 | -46.22089 | 21720 ft | 410 kts | 15° |
| 2026-05-04 13:53 | -23.31150 | -46.21059 | 22204 ft | 414 kts | 15° |
| 2026-05-04 13:53 | -23.28421 | -46.20016 | 22685 ft | 418 kts | 15° |
| 2026-05-04 13:54 | -23.22893 | -46.17912 | 23642 ft | 425 kts | 15° |
| 2026-05-04 13:54 | -23.20087 | -46.16847 | 24061 ft | 429 kts | 15° |
| 2026-05-04 13:54 | -23.14427 | -46.14693 | 24906 ft | 434 kts | 15° |
| 2026-05-04 13:55 | -23.11567 | -46.13605 | 25290 ft | 437 kts | 15° |
| 2026-05-04 13:55 | -23.05786 | -46.11402 | 26094 ft | 443 kts | 14° |
| 2026-05-04 13:55 | -23.02874 | -46.10293 | 26488 ft | 446 kts | 14° |
| 2026-05-04 13:56 | -22.99940 | -46.09174 | 26868 ft | 448 kts | 14° |
| 2026-05-04 13:56 | -22.96987 | -46.08051 | 27261 ft | 451 kts | 14° |
| 2026-05-04 13:56 | -22.91028 | -46.05790 | 28032 ft | 456 kts | 14° |
| 2026-05-04 13:57 | -22.88023 | -46.04649 | 28403 ft | 459 kts | 14° |
| 2026-05-04 13:57 | -22.85000 | -46.03499 | 28779 ft | 462 kts | 14° |
| 2026-05-04 13:58 | -22.75831 | -46.00039 | 29908 ft | 469 kts | 13° |
| 2026-05-04 13:58 | -22.69625 | -45.97712 | 30587 ft | 475 kts | 13° |
| 2026-05-04 13:58 | -22.66502 | -45.96537 | 30917 ft | 476 kts | 13° |
| 2026-05-04 13:59 | -22.65389 | -45.96117 | 31032 ft | 477 kts | 13° |
| 2026-05-04 13:59 | -22.63538 | -45.95418 | 31219 ft | 478 kts | 13° |
| 2026-05-04 13:59 | -22.57603 | -45.93183 | 31760 ft | 480 kts | 13° |
| 2026-05-04 14:00 | -22.54454 | -45.92000 | 32180 ft | 479 kts | 13° |
| 2026-05-04 14:00 | -22.48181 | -45.89643 | 33027 ft | 476 kts | 12° |
| 2026-05-04 14:00 | -22.45041 | -45.88467 | 33215 ft | 479 kts | 12° |
| 2026-05-04 14:01 | -22.41928 | -45.87295 | 33241 ft | 468 kts | 12° |
| 2026-05-04 14:01 | -22.38859 | -45.86136 | 33329 ft | 471 kts | 12° |
| 2026-05-04 14:01 | -22.32656 | -45.83813 | 33978 ft | 471 kts | 12° |
| 2026-05-04 14:02 | -22.29632 | -45.82533 | 34351 ft | 477 kts | 19° |
| 2026-05-04 14:02 | -22.26729 | -45.80753 | 34670 ft | 484 kts | 28° |
| 2026-05-04 14:02 | -22.24014 | -45.78497 | 34984 ft | 488 kts | 33° |
| 2026-05-04 14:02 | -22.21405 | -45.76214 | 35200 ft | 489 kts | 33° |
| 2026-05-04 14:03 | -22.18761 | -45.73918 | 35242 ft | 488 kts | 33° |
| 2026-05-04 14:03 | -22.13454 | -45.69342 | 35240 ft | 488 kts | 33° |
| 2026-05-04 14:04 | -22.05502 | -45.62498 | 35241 ft | 488 kts | 33° |
| 2026-05-04 14:04 | -22.00202 | -45.57930 | 35244 ft | 488 kts | 32° |
| 2026-05-04 14:05 | -21.92248 | -45.51080 | 35242 ft | 488 kts | 32° |
| 2026-05-04 14:06 | -21.86946 | -45.46532 | 35239 ft | 487 kts | 32° |
| 2026-05-04 14:06 | -21.81646 | -45.41988 | 35239 ft | 487 kts | 32° |
| 2026-05-04 14:07 | -21.76352 | -45.37440 | 35228 ft | 487 kts | 32° |
| 2026-05-04 14:07 | -21.71053 | -45.32892 | 35213 ft | 487 kts | 32° |
| 2026-05-04 14:08 | -21.65753 | -45.28362 | 35217 ft | 487 kts | 32° |
| 2026-05-04 14:08 | -21.60340 | -45.24016 | 35222 ft | 480 kts | 24° |
| 2026-05-04 14:09 | -21.51747 | -45.18524 | 35226 ft | 479 kts | 23° |
| 2026-05-04 14:10 | -21.43140 | -45.13035 | 35217 ft | 480 kts | 24° |
| 2026-05-04 14:10 | -21.37408 | -45.09380 | 35204 ft | 479 kts | 24° |
| 2026-05-04 14:11 | -21.31673 | -45.05730 | 35207 ft | 479 kts | 24° |
| 2026-05-04 14:11 | -21.23073 | -45.00255 | 35193 ft | 480 kts | 24° |
| 2026-05-04 14:12 | -21.17309 | -44.96605 | 35191 ft | 483 kts | 24° |
| 2026-05-04 14:12 | -21.11513 | -44.92925 | 34754 ft | 487 kts | 24° |
| 2026-05-04 14:13 | -21.08577 | -44.91050 | 34015 ft | 493 kts | 24° |
| 2026-05-04 14:13 | -21.05641 | -44.89167 | 33423 ft | 492 kts | 24° |
| 2026-05-04 14:13 | -21.02696 | -44.87276 | 32568 ft | 496 kts | 25° |
| 2026-05-04 14:13 | -20.99739 | -44.85381 | 31884 ft | 495 kts | 25° |
| 2026-05-04 14:14 | -20.97782 | -44.84127 | 31495 ft | 493 kts | 25° |
| 2026-05-04 14:14 | -20.91927 | -44.80391 | 30388 ft | 487 kts | 24° |
| 2026-05-04 14:14 | -20.89012 | -44.78538 | 29295 ft | 492 kts | 25° |
| 2026-05-04 14:15 | -20.83065 | -44.74767 | 27980 ft | 500 kts | 25° |
| 2026-05-04 14:15 | -20.77118 | -44.70983 | 27029 ft | 493 kts | 26° |
| 2026-05-04 14:16 | -20.71279 | -44.67264 | 26078 ft | 484 kts | 26° |
| 2026-05-04 14:16 | -20.68396 | -44.65438 | 25578 ft | 479 kts | 26° |
| 2026-05-04 14:17 | -20.62709 | -44.61856 | 24597 ft | 470 kts | 26° |
| 2026-05-04 14:17 | -20.59908 | -44.60093 | 24110 ft | 465 kts | 26° |
| 2026-05-04 14:17 | -20.54388 | -44.56620 | 23053 ft | 456 kts | 26° |
| 2026-05-04 14:18 | -20.51663 | -44.54905 | 22549 ft | 453 kts | 27° |
| 2026-05-04 14:18 | -20.46269 | -44.51520 | 21540 ft | 447 kts | 27° |
| 2026-05-04 14:19 | -20.41043 | -44.48237 | 20969 ft | 418 kts | 27° |
| 2026-05-04 14:19 | -20.38597 | -44.46691 | 20806 ft | 400 kts | 27° |
| 2026-05-04 14:19 | -20.36142 | -44.45422 | 20360 ft | 386 kts | 16° |
| 2026-05-04 14:19 | -20.33589 | -44.44670 | 19785 ft | 379 kts | 11° |
| 2026-05-04 14:20 | -20.31046 | -44.43985 | 19196 ft | 376 kts | 11° |
| 2026-05-04 14:20 | -20.28518 | -44.43307 | 18596 ft | 373 kts | 12° |
| 2026-05-04 14:20 | -20.26009 | -44.42635 | 17942 ft | 371 kts | 12° |
| 2026-05-04 14:21 | -20.21115 | -44.41313 | 17055 ft | 354 kts | 12° |
| 2026-05-04 14:21 | -20.18742 | -44.40669 | 16647 ft | 350 kts | 12° |
| 2026-05-04 14:21 | -20.16390 | -44.40031 | 16240 ft | 348 kts | 12° |
| 2026-05-04 14:21 | -20.14056 | -44.39396 | 15831 ft | 345 kts | 12° |
| 2026-05-04 14:22 | -20.11735 | -44.38764 | 15430 ft | 343 kts | 12° |
| 2026-05-04 14:22 | -20.09439 | -44.38142 | 15036 ft | 340 kts | 12° |
| 2026-05-04 14:22 | -20.07153 | -44.37523 | 14636 ft | 338 kts | 12° |
| 2026-05-04 14:22 | -20.04878 | -44.36907 | 14241 ft | 336 kts | 12° |
| 2026-05-04 14:23 | -20.00384 | -44.35688 | 13393 ft | 333 kts | 12° |
| 2026-05-04 14:23 | -19.98124 | -44.35073 | 12991 ft | 330 kts | 12° |
| 2026-05-04 14:23 | -19.95911 | -44.34474 | 12599 ft | 327 kts | 13° |
| 2026-05-04 14:24 | -19.93747 | -44.33891 | 12210 ft | 324 kts | 13° |
| 2026-05-04 14:24 | -19.91575 | -44.33307 | 11818 ft | 320 kts | 13° |
| 2026-05-04 14:24 | -19.89422 | -44.32728 | 11427 ft | 318 kts | 14° |
| 2026-05-04 14:24 | -19.87292 | -44.32152 | 11113 ft | 312 kts | 14° |
| 2026-05-04 14:25 | -19.85227 | -44.31591 | 10982 ft | 302 kts | 14° |
| 2026-05-04 14:25 | -19.81201 | -44.30503 | 10653 ft | 296 kts | 14° |
| 2026-05-04 14:25 | -19.79206 | -44.29966 | 10498 ft | 296 kts | 14° |
| 2026-05-04 14:26 | -19.77222 | -44.29421 | 10336 ft | 294 kts | 17° |
| 2026-05-04 14:26 | -19.75375 | -44.28546 | 10165 ft | 288 kts | 31° |
| 2026-05-04 14:26 | -19.73662 | -44.27453 | 10001 ft | 287 kts | 31° |
| 2026-05-04 14:26 | -19.71940 | -44.26366 | 9641 ft | 289 kts | 30° |
| 2026-05-04 14:27 | -19.70223 | -44.25291 | 9382 ft | 283 kts | 31° |
| 2026-05-04 14:27 | -19.68539 | -44.24239 | 9232 ft | 280 kts | 31° |
| 2026-05-04 14:27 | -19.66858 | -44.23189 | 9068 ft | 280 kts | 31° |
| 2026-05-04 14:27 | -19.65183 | -44.22147 | 8933 ft | 278 kts | 30° |
| 2026-05-04 14:28 | -19.63469 | -44.21156 | 8396 ft | 285 kts | 27° |
| 2026-05-04 14:28 | -19.61696 | -44.20200 | 7845 ft | 290 kts | 26° |
| 2026-05-04 14:28 | -19.59902 | -44.19259 | 7583 ft | 284 kts | 26° |
| 2026-05-04 14:28 | -19.58161 | -44.18348 | 7439 ft | 272 kts | 26° |
| 2026-05-04 14:29 | -19.55331 | -44.16176 | 7076 ft | 241 kts | 48° |
| 2026-05-04 14:29 | -19.53214 | -44.13614 | 6509 ft | 219 kts | 48° |
| 2026-05-04 14:30 | -19.52239 | -44.12436 | 6259 ft | 207 kts | 48° |
| 2026-05-04 14:30 | -19.51315 | -44.11321 | 6083 ft | 195 kts | 48° |
| 2026-05-04 14:30 | -19.50782 | -44.08752 | 5593 ft | 186 kts | 113° |
| 2026-05-04 14:31 | -19.51603 | -44.07729 | 5431 ft | 182 kts | 137° |
| 2026-05-04 14:31 | -19.53475 | -44.06013 | 5028 ft | 173 kts | 135° |
| 2026-05-04 14:32 | -19.55255 | -44.04374 | 4601 ft | 168 kts | 135° |
| 2026-05-04 14:32 | -19.56148 | -44.03549 | 4370 ft | 171 kts | 136° |
| 2026-05-04 14:32 | -19.57026 | -44.02740 | 4150 ft | 161 kts | 136° |
| 2026-05-04 14:32 | -19.57817 | -44.02012 | 3944 ft | 141 kts | 137° |
| 2026-05-04 14:33 | -19.58543 | -44.01340 | 3780 ft | 137 kts | 136° |
| 2026-05-04 14:33 | -19.59253 | -44.00683 | 3608 ft | 135 kts | 137° |
| 2026-05-04 14:33 | -19.59963 | -44.00026 | 3447 ft | 136 kts | 137° |
| 2026-05-04 14:33 | -19.60682 | -43.99365 | 3247 ft | 137 kts | 138° |
| 2026-05-04 14:34 | -19.61385 | -43.98714 | 3035 ft | 132 kts | 139° |
| 2026-05-04 14:34 | -19.62081 | -43.98073 | 2882 ft | 133 kts | 138° |
| 2026-05-04 14:34 | -19.62760 | -43.97442 | 2814 ft | 118 kts | 139° |
| 2026-05-04 14:34 | -19.63284 | -43.96957 | 2807 ft | 72 kts | 139° |
| 2026-05-04 14:35 | -19.63527 | -43.96724 | 2810 ft | 34 kts | 127° |
| 2026-05-04 14:35 | -19.63602 | -43.96557 | 2809 ft | 14 kts | 108° |
| 2026-05-04 14:35 | -19.63584 | -43.96482 | 2810 ft | 12 kts | 18° |
| 2026-05-04 14:35 | -19.63509 | -43.96519 | 2811 ft | 13 kts | 320° |
| 2026-05-04 14:36 | -19.63439 | -43.96584 | 2810 ft | 14 kts | 319° |
| 2026-05-04 14:36 | -19.63365 | -43.96653 | 2811 ft | 14 kts | 319° |
| 2026-05-04 14:36 | -19.63286 | -43.96713 | 2809 ft | 13 kts | 350° |
| 2026-05-04 14:36 | -19.63223 | -43.96658 | 2811 ft | 11 kts | 49° |
| 2026-05-04 14:37 | -19.63168 | -43.96616 | 2809 ft | 6 kts | 357° |
| 2026-05-04 14:37 | -19.63132 | -43.96642 | 2809 ft | 7 kts | 319° |
| 2026-05-04 14:37 | -19.63096 | -43.96676 | 2809 ft | 7 kts | 319° |
| 2026-05-04 14:37 | -19.63054 | -43.96713 | 2809 ft | 8 kts | 319° |
| 2026-05-04 14:38 | -19.63015 | -43.96749 | 2811 ft | 4 kts | 320° |
| 2026-05-04 14:38 | -19.62990 | -43.96771 | 2810 ft | 5 kts | 320° |
| 2026-05-04 14:38 | -19.62959 | -43.96789 | 2812 ft | 5 kts | 333° |
| 2026-05-04 14:38 | -19.62932 | -43.96776 | 2810 ft | 5 kts | 43° |
| 2026-05-04 14:39 | -19.62915 | -43.96754 | 2811 ft | 0 kts | 50° |
| 2026-05-04 14:39 | -19.62914 | -43.96753 | 2810 ft | 0 kts | 49° |